createdAt,value
2023-03-02T00:01:35.467Z,0.82
2023-03-02T00:04:06.420Z,0.87
2023-03-02T00:06:36.907Z,0.86
2023-03-02T00:09:07.188Z,0.83
2023-03-02T00:11:37.882Z,0.72
2023-03-02T00:14:06.786Z,0.78
2023-03-02T00:16:35.477Z,0.74
2023-03-02T00:19:03.952Z,0.72
2023-03-02T00:21:32.829Z,0.68
2023-03-02T00:24:01.344Z,0.62
2023-03-02T00:26:34.617Z,0.64
2023-03-02T00:29:03.190Z,0.58
2023-03-02T00:31:31.594Z,0.57
2023-03-02T00:33:59.996Z,0.52
2023-03-02T00:36:28.208Z,0.42
2023-03-02T00:38:57.458Z,0.38
2023-03-02T00:41:25.754Z,0.34
2023-03-02T00:43:55.417Z,0.35
2023-03-02T00:46:25.832Z,0.44
2023-03-02T00:48:54.420Z,0.40
2023-03-02T00:51:23.000Z,0.44
2023-03-02T00:53:51.241Z,0.45
2023-03-02T00:56:19.454Z,0.39
2023-03-02T00:58:51.161Z,0.44
2023-03-02T01:01:21.098Z,0.49
2023-03-02T01:03:52.732Z,0.47
2023-03-02T01:06:22.518Z,0.42
2023-03-02T01:08:51.053Z,0.34
2023-03-02T01:11:21.711Z,0.28
2023-03-02T01:13:51.275Z,0.29
2023-03-02T01:16:21.007Z,0.30
2023-03-02T01:18:49.293Z,0.27
2023-03-02T01:21:17.959Z,0.18
2023-03-02T01:23:46.167Z,0.09
2023-03-02T01:26:14.430Z,0.05
2023-03-02T01:28:42.668Z,-0.00
2023-03-02T01:31:11.020Z,-0.03
2023-03-02T01:33:40.896Z,-0.08
2023-03-02T01:36:09.681Z,-0.08
2023-03-02T01:38:38.648Z,-0.09
2023-03-02T01:41:07.286Z,-0.10
2023-03-02T01:43:35.639Z,-0.07
2023-03-02T01:46:05.973Z,-0.15
2023-03-02T01:48:54.659Z,-0.21
2023-03-02T01:51:35.234Z,-0.21
2023-03-02T01:54:06.974Z,-0.19
2023-03-02T01:56:39.459Z,-0.10
2023-03-02T01:59:12.634Z,-0.20
2023-03-02T02:01:44.349Z,-0.19
2023-03-02T02:04:15.091Z,-0.14
2023-03-02T02:06:48.924Z,-0.19
2023-03-02T02:09:20.641Z,-0.19
2023-03-02T02:11:49.221Z,-0.19
2023-03-02T02:14:17.528Z,-0.25
2023-03-02T02:16:45.926Z,-0.34
2023-03-02T02:19:23.961Z,-0.32
2023-03-02T02:21:52.912Z,-0.34
2023-03-02T02:24:23.580Z,-0.24
2023-03-02T02:26:56.422Z,-0.27
2023-03-02T02:29:27.265Z,-0.29
2023-03-02T02:32:00.574Z,-0.27
2023-03-02T02:34:32.825Z,-0.24
2023-03-02T02:37:06.684Z,-0.26
2023-03-02T02:39:40.103Z,-0.29
2023-03-02T02:42:15.023Z,-0.34
2023-03-02T02:44:43.470Z,-0.36
2023-03-02T02:47:18.327Z,-0.40
2023-03-02T02:49:48.986Z,-0.40
2023-03-02T02:52:20.655Z,-0.44
2023-03-02T02:54:51.863Z,-0.47
2023-03-02T02:57:24.635Z,-0.56
2023-03-02T02:59:56.669Z,-0.54
2023-03-02T03:02:27.517Z,-0.60
2023-03-02T03:05:03.001Z,-0.66
2023-03-02T03:07:34.037Z,-0.68
2023-03-02T03:10:11.961Z,-0.70
2023-03-02T03:12:42.633Z,-0.70
2023-03-02T03:15:12.547Z,-0.72
2023-03-02T03:17:41.002Z,-0.76
2023-03-02T03:20:10.704Z,-0.81
2023-03-02T03:22:44.029Z,-0.84
2023-03-02T03:25:15.337Z,-0.88
2023-03-02T03:27:47.161Z,-0.91
2023-03-02T03:30:16.380Z,-0.89
2023-03-02T03:32:45.443Z,-0.97
2023-03-02T03:35:17.726Z,-0.94
2023-03-02T03:37:48.469Z,-1.03
2023-03-02T03:40:17.606Z,-1.04
2023-03-02T03:42:48.611Z,-1.09
2023-03-02T03:45:16.961Z,-1.09
2023-03-02T03:47:46.053Z,-1.09
2023-03-02T03:50:14.642Z,-1.08
2023-03-02T03:52:44.021Z,-1.10
2023-03-02T03:55:20.436Z,-1.09
2023-03-02T03:57:51.736Z,-1.09
2023-03-02T04:00:21.256Z,-1.08
2023-03-02T04:03:02.336Z,-1.08
2023-03-02T04:05:33.196Z,-1.03
2023-03-02T04:08:03.486Z,-1.04
2023-03-02T04:10:32.886Z,-1.04
2023-03-02T04:13:03.822Z,-0.97
2023-03-02T04:15:32.784Z,-1.02
2023-03-02T04:18:01.886Z,-1.02
2023-03-02T04:20:31.694Z,-1.05
2023-03-02T04:23:00.811Z,-1.06
2023-03-02T04:25:30.994Z,-1.05
2023-03-02T04:28:06.431Z,-1.02
2023-03-02T04:30:38.834Z,-1.08
2023-03-02T04:33:07.128Z,-1.17
2023-03-02T04:35:36.573Z,-1.19
2023-03-02T04:38:05.665Z,-1.17
2023-03-02T04:40:33.984Z,-1.19
2023-03-02T04:43:02.188Z,-1.18
2023-03-02T04:45:31.843Z,-1.13
2023-03-02T04:48:00.149Z,-1.13
2023-03-02T04:50:28.507Z,-1.11
2023-03-02T04:52:56.893Z,-1.03
2023-03-02T04:55:28.074Z,-1.00
2023-03-02T04:57:56.390Z,-1.02
2023-03-02T05:00:25.217Z,-0.98
2023-03-02T05:02:54.808Z,-0.96
2023-03-02T05:05:25.464Z,-0.88
2023-03-02T05:07:54.678Z,-0.84
2023-03-02T05:10:24.025Z,-0.84
2023-03-02T05:12:57.938Z,-0.77
2023-03-02T05:15:28.886Z,-0.68
2023-03-02T05:17:59.181Z,-0.69
2023-03-02T05:20:30.335Z,-0.71
2023-03-02T05:23:02.235Z,-0.72
2023-03-02T05:25:32.856Z,-0.69
2023-03-02T05:28:01.690Z,-0.71
2023-03-02T05:30:32.473Z,-0.65
2023-03-02T05:33:02.087Z,-0.68
2023-03-02T05:35:30.354Z,-0.80
2023-03-02T05:37:58.737Z,-0.73
2023-03-02T05:40:27.262Z,-0.74
2023-03-02T05:42:55.836Z,-0.75
2023-03-02T05:45:26.660Z,-0.77
2023-03-02T05:47:55.279Z,-0.83
2023-03-02T05:50:25.495Z,-0.82
2023-03-02T05:52:53.825Z,-0.83
2023-03-02T05:55:22.284Z,-0.85
2023-03-02T05:57:50.627Z,-0.86
2023-03-02T06:00:20.519Z,-0.94
2023-03-02T06:02:49.220Z,-0.97
2023-03-02T06:05:19.220Z,-1.02
2023-03-02T06:07:48.811Z,-1.00
2023-03-02T06:10:17.329Z,-0.99
2023-03-02T06:12:45.622Z,-1.04
2023-03-02T06:15:13.905Z,-1.02
2023-03-02T06:17:42.172Z,-0.98
2023-03-02T06:20:11.793Z,-1.03
2023-03-02T06:22:42.140Z,-1.00
2023-03-02T06:25:14.111Z,-1.02
2023-03-02T06:27:42.540Z,-1.09
2023-03-02T06:30:14.804Z,-1.06
2023-03-02T06:32:43.782Z,-1.03
2023-03-02T06:35:13.084Z,-0.93
2023-03-02T06:37:43.971Z,-0.88
2023-03-02T06:40:14.790Z,-0.84
2023-03-02T06:42:43.997Z,-0.87
2023-03-02T06:45:12.749Z,-0.89
2023-03-02T06:47:40.984Z,-0.88
2023-03-02T06:50:10.788Z,-0.84
2023-03-02T06:52:39.409Z,-0.83
2023-03-02T06:55:08.789Z,-0.76
2023-03-02T06:57:38.557Z,-0.72
2023-03-02T07:00:11.334Z,-0.71
2023-03-02T07:02:39.745Z,-0.64
2023-03-02T07:05:08.890Z,-0.52
2023-03-02T07:07:37.184Z,-0.57
2023-03-02T07:10:06.467Z,-0.51
2023-03-02T07:12:34.971Z,-0.50
2023-03-02T07:15:08.945Z,-0.52
2023-03-02T07:17:37.276Z,-0.41
2023-03-02T07:20:06.447Z,-0.28
2023-03-02T07:22:34.826Z,-0.24
2023-03-02T07:25:03.064Z,-0.16
2023-03-02T07:27:31.370Z,-0.05
2023-03-02T07:29:59.783Z,-0.00
2023-03-02T07:32:29.565Z,0.10
2023-03-02T07:34:57.855Z,0.17
2023-03-02T07:37:26.125Z,0.18
2023-03-02T07:39:54.347Z,0.27
2023-03-02T07:42:22.627Z,0.32
2023-03-02T07:44:54.711Z,0.38
2023-03-02T07:47:23.481Z,0.36
2023-03-02T07:49:53.116Z,0.44
2023-03-02T07:52:21.386Z,0.50
2023-03-02T07:54:49.982Z,0.51
2023-03-02T07:57:18.264Z,0.65
2023-03-02T07:59:46.617Z,0.71
2023-03-02T08:02:18.017Z,0.84
2023-03-02T08:04:46.243Z,0.93
2023-03-02T08:07:16.085Z,0.99
2023-03-02T08:09:44.401Z,0.99
2023-03-02T08:12:12.615Z,1.14
2023-03-02T08:14:40.872Z,1.22
2023-03-02T08:17:09.302Z,1.26
2023-03-02T08:19:38.001Z,1.27
2023-03-02T08:22:06.279Z,1.31
2023-03-02T08:24:36.066Z,1.36
2023-03-02T08:27:05.234Z,1.53
2023-03-02T08:29:33.651Z,1.49
2023-03-02T08:32:02.326Z,1.52
2023-03-02T08:34:30.699Z,1.61
2023-03-02T08:36:59.138Z,1.67
2023-03-02T08:39:30.385Z,1.80
2023-03-02T08:42:00.335Z,1.77
2023-03-02T08:44:28.650Z,1.80
2023-03-02T08:46:56.869Z,1.79
2023-03-02T08:49:25.093Z,1.93
2023-03-02T08:51:56.317Z,1.98
2023-03-02T08:54:24.772Z,2.10
2023-03-02T08:56:53.025Z,2.05
2023-03-02T08:59:22.714Z,2.11
2023-03-02T09:01:50.947Z,2.30
2023-03-02T09:04:19.376Z,2.31
2023-03-02T09:06:47.811Z,2.42
2023-03-02T09:09:16.663Z,2.52
2023-03-02T09:11:45.052Z,2.56
2023-03-02T09:14:13.884Z,2.64
2023-03-02T09:16:43.643Z,2.60
2023-03-02T09:19:13.824Z,2.93
2023-03-02T09:21:42.164Z,2.91
2023-03-02T09:24:10.481Z,2.91
2023-03-02T09:26:39.417Z,2.88
2023-03-02T09:29:08.260Z,3.05
2023-03-02T09:31:37.546Z,2.96
2023-03-02T09:34:07.423Z,3.19
2023-03-02T09:36:35.687Z,3.41
2023-03-02T09:39:12.293Z,3.46
2023-03-02T09:42:03.388Z,3.75
2023-03-02T09:44:49.468Z,3.84
2023-03-02T09:47:34.822Z,3.89
2023-03-02T09:50:17.659Z,3.75
2023-03-02T09:52:52.394Z,4.07
2023-03-02T09:55:25.496Z,4.07
2023-03-02T09:57:54.973Z,4.17
2023-03-02T10:00:28.582Z,4.09
2023-03-02T10:03:11.379Z,4.16
2023-03-02T10:05:47.663Z,4.21
2023-03-02T10:08:18.026Z,4.47
2023-03-02T10:10:50.414Z,4.68
2023-03-02T10:13:26.341Z,4.86
2023-03-02T10:16:05.162Z,4.96
2023-03-02T10:18:38.677Z,5.09
2023-03-02T10:21:21.567Z,5.19
2023-03-02T10:23:57.357Z,5.06
2023-03-02T10:26:37.670Z,5.21
2023-03-02T10:29:22.241Z,5.25
2023-03-02T10:31:55.745Z,5.50
2023-03-02T10:34:27.980Z,5.61
2023-03-02T10:36:58.472Z,5.66
2023-03-02T10:39:26.873Z,5.71
2023-03-02T10:42:00.129Z,5.98
2023-03-02T10:44:32.388Z,6.01
2023-03-02T10:47:00.850Z,6.30
2023-03-02T10:49:31.409Z,6.16
2023-03-02T10:52:02.928Z,6.08
2023-03-02T10:54:32.461Z,6.12
2023-03-02T10:57:02.435Z,6.11
2023-03-02T10:59:43.594Z,6.17
2023-03-02T11:02:23.368Z,6.43
2023-03-02T11:04:57.601Z,6.51
2023-03-02T11:07:29.589Z,6.58
2023-03-02T11:10:03.036Z,6.90
2023-03-02T11:12:32.687Z,6.81
2023-03-02T11:15:29.008Z,6.99
2023-03-02T11:18:04.205Z,6.96
2023-03-02T11:20:35.205Z,7.05
2023-03-02T11:23:26.487Z,7.11
2023-03-02T11:25:57.312Z,6.95
2023-03-02T11:28:45.905Z,7.18
2023-03-02T11:31:22.773Z,7.26
2023-03-02T11:34:17.847Z,7.26
2023-03-02T11:36:58.968Z,7.27
2023-03-02T11:39:41.050Z,7.35
2023-03-02T11:42:20.527Z,7.52
2023-03-02T11:44:49.656Z,7.70
2023-03-02T11:47:19.902Z,7.82
2023-03-02T11:49:53.820Z,7.86
2023-03-02T11:52:25.729Z,7.90
2023-03-02T11:55:00.503Z,7.93
2023-03-02T11:57:32.714Z,8.19
2023-03-02T12:00:01.749Z,8.37
2023-03-02T12:02:30.079Z,8.06
2023-03-02T12:05:06.815Z,8.41
2023-03-02T12:07:35.881Z,8.32
2023-03-02T12:10:09.165Z,8.24
2023-03-02T12:12:43.269Z,8.42
2023-03-02T12:15:36.348Z,8.60
2023-03-02T12:18:15.482Z,8.34
2023-03-02T12:20:44.154Z,8.12
2023-03-02T12:23:24.107Z,8.45
2023-03-02T12:26:04.199Z,8.63
2023-03-02T12:28:35.091Z,8.77
2023-03-02T12:31:12.792Z,8.80
2023-03-02T12:33:47.594Z,8.95
2023-03-02T12:36:20.974Z,8.88
2023-03-02T12:39:01.176Z,9.16
2023-03-02T12:41:41.629Z,8.95
2023-03-02T12:44:31.654Z,8.98
2023-03-02T12:47:02.968Z,9.14
2023-03-02T12:49:46.729Z,9.04
2023-03-02T12:52:27.454Z,9.19
2023-03-02T12:55:07.517Z,9.17
2023-03-02T12:57:39.502Z,9.16
2023-03-02T13:00:17.671Z,9.19
2023-03-02T13:02:49.375Z,9.47
2023-03-02T13:05:20.635Z,9.34
2023-03-02T13:07:58.666Z,9.36
2023-03-02T13:10:31.441Z,9.46
2023-03-02T13:13:01.848Z,9.30
2023-03-02T13:15:52.019Z,9.32
2023-03-02T13:18:21.631Z,9.46
2023-03-02T13:20:51.527Z,9.53
2023-03-02T13:23:21.004Z,9.25
2023-03-02T13:25:52.017Z,9.51
2023-03-02T13:28:27.744Z,9.59
2023-03-02T13:31:01.472Z,9.59
2023-03-02T13:33:31.081Z,9.65
2023-03-02T13:35:59.812Z,9.68
2023-03-02T13:38:32.376Z,9.64
2023-03-02T13:41:02.109Z,9.57
2023-03-02T13:43:39.700Z,9.68
2023-03-02T13:46:24.024Z,9.82
2023-03-02T13:49:09.125Z,9.99
2023-03-02T13:51:41.694Z,10.06
2023-03-02T13:54:21.163Z,9.96
2023-03-02T13:56:51.914Z,9.93
2023-03-02T13:59:23.026Z,10.09
2023-03-02T14:01:51.811Z,9.92
2023-03-02T14:04:23.400Z,9.82
2023-03-02T14:06:52.500Z,9.97
2023-03-02T14:09:21.334Z,9.98
2023-03-02T14:11:51.947Z,9.85
2023-03-02T14:14:24.351Z,9.93
2023-03-02T14:16:52.800Z,9.93
2023-03-02T14:19:22.204Z,9.99
2023-03-02T14:21:50.684Z,10.00
2023-03-02T14:24:18.888Z,9.97
2023-03-02T14:26:48.949Z,10.00
2023-03-02T14:29:24.317Z,9.97
2023-03-02T14:31:53.279Z,10.03
2023-03-02T14:34:21.644Z,10.12
2023-03-02T14:36:52.779Z,9.94
2023-03-02T14:39:24.134Z,10.07
2023-03-02T14:41:54.756Z,10.13
2023-03-02T14:44:24.834Z,10.15
2023-03-02T14:46:53.417Z,10.18
2023-03-02T14:49:22.036Z,10.07
2023-03-02T14:52:00.259Z,10.31
2023-03-02T14:54:32.269Z,10.31
2023-03-02T14:57:00.555Z,10.31
2023-03-02T14:59:30.212Z,10.58
2023-03-02T15:02:00.353Z,10.95
2023-03-02T15:04:33.997Z,11.03
2023-03-02T15:07:02.364Z,11.39
2023-03-02T15:09:31.395Z,11.46
2023-03-02T15:11:59.611Z,11.61
2023-03-02T15:14:29.210Z,10.99
2023-03-02T15:16:57.530Z,11.18
2023-03-02T15:19:25.851Z,11.81
2023-03-02T15:21:54.116Z,12.18
2023-03-02T15:24:23.412Z,12.66
2023-03-02T15:26:52.210Z,12.45
2023-03-02T15:29:21.543Z,12.49
2023-03-02T15:31:51.293Z,12.06
2023-03-02T15:34:19.725Z,12.12
2023-03-02T15:36:48.741Z,11.61
2023-03-02T15:39:17.115Z,11.70
2023-03-02T15:41:45.869Z,11.99
2023-03-02T15:44:21.707Z,11.75
2023-03-02T15:46:53.904Z,11.55
2023-03-02T15:49:24.515Z,10.38
2023-03-02T15:51:54.519Z,9.84
2023-03-02T15:54:22.942Z,9.74
2023-03-02T15:56:53.725Z,9.44
2023-03-02T15:59:22.769Z,9.20
2023-03-02T16:01:52.721Z,9.26
2023-03-02T16:04:21.474Z,9.14
2023-03-02T16:06:49.726Z,9.07
2023-03-02T16:09:17.959Z,9.10
2023-03-02T16:11:46.222Z,8.83
2023-03-02T16:14:15.688Z,8.79
2023-03-02T16:16:44.077Z,8.76
2023-03-02T16:19:17.781Z,8.74
2023-03-02T16:21:47.393Z,8.73
2023-03-02T16:24:17.012Z,8.73
2023-03-02T16:26:45.756Z,8.72
2023-03-02T16:29:14.822Z,8.66
2023-03-02T16:31:46.567Z,8.70
2023-03-02T16:34:17.483Z,8.72
2023-03-02T16:36:46.112Z,8.66
2023-03-02T16:39:15.251Z,8.61
2023-03-02T16:41:46.250Z,8.51
2023-03-02T16:44:16.138Z,8.51
2023-03-02T16:46:44.787Z,8.51
2023-03-02T16:49:14.395Z,8.49
2023-03-02T16:51:44.716Z,8.44
2023-03-02T16:54:16.878Z,8.32
2023-03-02T16:56:47.309Z,8.18
2023-03-02T16:59:16.001Z,8.11
2023-03-02T17:01:44.463Z,8.00
2023-03-02T17:04:12.813Z,7.94
2023-03-02T17:06:59.829Z,7.85
2023-03-02T17:09:29.170Z,7.71
2023-03-02T17:11:58.103Z,7.64
2023-03-02T17:14:26.679Z,7.55
2023-03-02T17:16:56.412Z,7.48
2023-03-02T17:19:26.762Z,7.34
2023-03-02T17:21:57.687Z,7.23
2023-03-02T17:24:26.233Z,7.14
2023-03-02T17:27:05.437Z,7.08
2023-03-02T17:29:37.093Z,7.07
2023-03-02T17:32:05.793Z,6.97
2023-03-02T17:34:34.034Z,6.84
2023-03-02T17:37:03.800Z,6.75
2023-03-02T17:39:32.037Z,6.81
2023-03-02T17:42:00.252Z,6.82
2023-03-02T17:44:28.898Z,6.72
2023-03-02T17:46:57.197Z,6.63
2023-03-02T17:49:25.440Z,6.51
2023-03-02T17:51:53.649Z,6.39
2023-03-02T17:54:23.431Z,6.29
2023-03-02T17:56:51.761Z,6.22
2023-03-02T17:59:20.009Z,6.13
2023-03-02T18:01:48.462Z,5.99
2023-03-02T18:04:16.783Z,5.95
2023-03-02T18:06:45.121Z,5.86
2023-03-02T18:09:13.421Z,5.79
2023-03-02T18:11:43.909Z,5.74
2023-03-02T18:14:16.159Z,5.72
2023-03-02T18:16:44.807Z,5.66
2023-03-02T18:19:13.506Z,5.64
2023-03-02T18:21:43.541Z,5.60
2023-03-02T18:24:11.999Z,5.57
2023-03-02T18:26:40.789Z,5.48
2023-03-02T18:29:10.437Z,5.47
2023-03-02T18:31:39.640Z,5.39
2023-03-02T18:34:07.980Z,5.37
2023-03-02T18:36:36.275Z,5.32
2023-03-02T18:39:05.223Z,5.31
2023-03-02T18:41:33.693Z,5.25
2023-03-02T18:44:03.515Z,5.18
2023-03-02T18:46:34.225Z,5.12
2023-03-02T18:49:04.445Z,5.08
2023-03-02T18:51:32.888Z,5.07
2023-03-02T18:54:01.211Z,5.03
2023-03-02T18:56:29.574Z,4.97
2023-03-02T18:58:57.912Z,5.00
2023-03-02T19:01:26.154Z,4.96
2023-03-02T19:03:57.603Z,4.93
2023-03-02T19:06:26.254Z,4.87
2023-03-02T19:08:54.654Z,4.84
2023-03-02T19:11:22.975Z,4.79
2023-03-02T19:13:51.263Z,4.66
2023-03-02T19:16:19.562Z,4.68
2023-03-02T19:18:48.698Z,4.63
2023-03-02T19:21:18.417Z,4.61
2023-03-02T19:23:47.727Z,4.59
2023-03-02T19:26:16.098Z,4.51
2023-03-02T19:28:44.373Z,4.43
2023-03-02T19:31:12.945Z,4.32
2023-03-02T19:33:42.569Z,4.26
2023-03-02T19:36:11.225Z,4.20
2023-03-02T19:38:42.959Z,4.18
2023-03-02T19:41:13.280Z,4.09
2023-03-02T19:43:42.816Z,4.08
2023-03-02T19:46:11.795Z,4.04
2023-03-02T19:48:40.209Z,3.95
2023-03-02T19:51:09.421Z,3.91
2023-03-02T19:53:41.209Z,3.82
2023-03-02T19:56:14.358Z,3.79
2023-03-02T19:58:49.553Z,3.86
2023-03-02T20:01:21.757Z,3.88
2023-03-02T20:03:51.847Z,3.82
2023-03-02T20:06:20.391Z,3.82
2023-03-02T20:08:50.679Z,3.79
2023-03-02T20:11:19.520Z,3.77
2023-03-02T20:13:48.236Z,3.70
2023-03-02T20:16:16.547Z,3.63
2023-03-02T20:18:45.669Z,3.58
2023-03-02T20:21:14.041Z,3.65
2023-03-02T20:23:42.997Z,3.65
2023-03-02T20:26:12.673Z,3.61
2023-03-02T20:28:42.221Z,3.63
2023-03-02T20:31:12.664Z,3.62
2023-03-02T20:33:43.958Z,3.57
2023-03-02T20:36:14.070Z,3.63
2023-03-02T20:38:47.394Z,3.64
2023-03-02T20:41:18.193Z,3.56
2023-03-02T20:43:46.952Z,3.52
2023-03-02T20:46:20.723Z,3.48
2023-03-02T20:48:50.061Z,3.56
2023-03-02T20:51:18.451Z,3.61
2023-03-02T20:53:47.114Z,3.61
2023-03-02T20:56:18.585Z,3.55
2023-03-02T20:58:48.831Z,3.50
2023-03-02T21:01:18.565Z,3.60
2023-03-02T21:03:47.049Z,3.54
2023-03-02T21:06:16.295Z,3.60
2023-03-02T21:08:45.387Z,3.61
2023-03-02T21:11:17.301Z,3.54
2023-03-02T21:13:47.744Z,3.56
2023-03-02T21:16:20.912Z,3.50
2023-03-02T21:18:49.329Z,3.40
2023-03-02T21:21:20.183Z,3.33
2023-03-02T21:23:51.650Z,3.33
2023-03-02T21:26:21.870Z,3.29
2023-03-02T21:28:50.192Z,3.20
2023-03-02T21:31:19.678Z,3.23
2023-03-02T21:33:49.618Z,3.13
2023-03-02T21:36:20.082Z,3.18
2023-03-02T21:38:48.441Z,3.18
2023-03-02T21:41:17.017Z,3.18
2023-03-02T21:43:47.803Z,3.18
2023-03-02T21:46:18.160Z,3.16
2023-03-02T21:48:46.618Z,3.09
2023-03-02T21:51:15.988Z,3.08
2023-03-02T21:53:44.300Z,3.03
2023-03-02T21:56:20.496Z,3.08
2023-03-02T21:58:51.262Z,2.97
2023-03-02T22:01:19.991Z,2.97
2023-03-02T22:03:48.483Z,3.02
2023-03-02T22:06:18.601Z,2.96
2023-03-02T22:08:46.943Z,2.87
2023-03-02T22:11:20.409Z,2.84
2023-03-02T22:13:51.176Z,2.85
2023-03-02T22:16:21.023Z,2.87
2023-03-02T22:18:50.902Z,2.75
2023-03-02T22:21:27.414Z,2.68
2023-03-02T22:24:00.949Z,2.74
2023-03-02T22:26:29.265Z,2.73
2023-03-02T22:29:09.877Z,2.75
2023-03-02T22:31:42.265Z,2.68
2023-03-02T22:34:15.349Z,2.52
2023-03-02T22:36:43.828Z,2.58
2023-03-02T22:39:18.013Z,2.50
2023-03-02T22:41:46.257Z,2.50
2023-03-02T22:44:15.879Z,2.53
2023-03-02T22:46:44.290Z,2.56
2023-03-02T22:49:18.138Z,2.61
2023-03-02T22:51:46.579Z,2.56
2023-03-02T22:54:23.835Z,2.53
2023-03-02T22:56:54.188Z,2.52
2023-03-02T22:59:26.172Z,2.47
2023-03-02T23:01:55.618Z,2.46
2023-03-02T23:04:25.786Z,2.50
2023-03-02T23:06:55.457Z,2.52
2023-03-02T23:09:25.854Z,2.49
2023-03-02T23:11:55.794Z,2.51
2023-03-02T23:14:28.018Z,2.45
2023-03-02T23:17:00.408Z,2.37
2023-03-02T23:19:29.909Z,2.32
2023-03-02T23:21:59.189Z,2.34
2023-03-02T23:24:27.582Z,2.40
2023-03-02T23:26:56.001Z,2.34
2023-03-02T23:29:25.616Z,2.29
2023-03-02T23:31:54.023Z,2.27
2023-03-02T23:34:23.555Z,2.24
2023-03-02T23:36:51.834Z,2.19
2023-03-02T23:39:20.037Z,2.22
2023-03-02T23:41:48.371Z,2.16
2023-03-02T23:44:16.680Z,2.16
2023-03-02T23:46:46.385Z,2.14
2023-03-02T23:49:15.121Z,2.09
2023-03-02T23:51:43.546Z,2.08
2023-03-02T23:54:11.949Z,2.01
2023-03-02T23:56:40.295Z,1.92
2023-03-02T23:59:08.535Z,1.87
